Terminal Aerodrome Forecast
Issued by NWS

Current Version | Previous Version | Text Only | Print | Product List | Glossary Off
Versions: 1 2 3 4 5 6 7 8 9 10 11 12 13 14 15 16 17 18 19 20 21 22 23 24 25 26

000
FTUS41 KRLX 280900 AAB
TAFCKB
TAF AMD
KCKB 280905Z 2809/2906 25007KT 6SM BR OVC020
     FM281100 27005KT 6SM BR OVC025
     FM281700 26005KT P6SM BKN035
     FM290000 00000KT P6SM BKN080=

USA.gov is the U.S. government's official web portal to all federal, state and local government web resources and services.